sensor_id;sensor_type;location;lat;lon;timestamp;pressure;altitude;pressure_sealevel;temperature;humidity
7824;BME280;3957;48.61947800;9.05303100;2022-11-20T00:01:14;95536.50;;;2.15;100.00
7824;BME280;3957;48.61947800;9.05303100;2022-11-20T00:02:35;95530.41;;;2.15;100.00
7824;BME280;3957;48.61947800;9.05303100;2022-11-20T00:03:57;95533.38;;;2.12;100.00
7824;BME280;3957;48.61947800;9.05303100;2022-11-20T00:05:18;95539.47;;;2.12;100.00
7824;BME280;3957;48.61947800;9.05303100;2022-11-20T00:06:40;95539.13;;;2.15;100.00
7824;BME280;3957;48.61947800;9.05303100;2022-11-20T00:08:00;95539.81;;;2.17;100.00
7824;BME280;3957;48.61947800;9.05303100;2022-11-20T00:09:21;95536.84;;;2.12;100.00
7824;BME280;3957;48.61947800;9.05303100;2022-11-20T00:10:42;95539.97;;;2.08;100.00
7824;BME280;3957;48.61947800;9.05303100;2022-11-20T00:12:03;95543.44;;;2.08;100.00
7824;BME280;3957;48.61947800;9.05303100;2022-11-20T00:13:23;95532.72;;;2.10;100.00
7824;BME280;3957;48.61947800;9.05303100;2022-11-20T00:14:44;95530.25;;;2.08;100.00
7824;BME280;3957;48.61947800;9.05303100;2022-11-20T00:16:07;95541.63;;;2.09;100.00
7824;BME280;3957;48.61947800;9.05303100;2022-11-20T00:17:28;95532.06;;;2.08;100.00
7824;BME280;3957;48.61947800;9.05303100;2022-11-20T00:18:49;95534.53;;;2.09;100.00
7824;BME280;3957;48.61947800;9.05303100;2022-11-20T00:20:10;95533.84;;;2.07;100.00
7824;BME280;3957;48.61947800;9.05303100;2022-11-20T00:21:31;95535.03;;;2.04;100.00
7824;BME280;3957;48.61947800;9.05303100;2022-11-20T00:22:52;95532.53;;;2.03;100.00
7824;BME280;3957;48.61947800;9.05303100;2022-11-20T00:24:13;95527.75;;;2.07;100.00
7824;BME280;3957;48.61947800;9.05303100;2022-11-20T00:25:34;95532.06;;;2.08;100.00
7824;BME280;3957;48.61947800;9.05303100;2022-11-20T00:26:55;95530.25;;;2.08;100.00
7824;BME280;3957;48.61947800;9.05303100;2022-11-20T00:28:16;95529.44;;;2.08;100.00
7824;BME280;3957;48.61947800;9.05303100;2022-11-20T00:29:37;95534.53;;;2.09;100.00
7824;BME280;3957;48.61947800;9.05303100;2022-11-20T00:31:07;95539.66;;;2.11;100.00
7824;BME280;3957;48.61947800;9.05303100;2022-11-20T00:32:29;95536.19;;;2.10;100.00
7824;BME280;3957;48.61947800;9.05303100;2022-11-20T00:33:50;95534.19;;;2.12;100.00
7824;BME280;3957;48.61947800;9.05303100;2022-11-20T00:35:11;95536.66;;;2.14;100.00
7824;BME280;3957;48.61947800;9.05303100;2022-11-20T00:36:33;95539.13;;;2.15;100.00
7824;BME280;3957;48.61947800;9.05303100;2022-11-20T00:37:54;95536.50;;;2.15;100.00
7824;BME280;3957;48.61947800;9.05303100;2022-11-20T00:39:15;95537.50;;;2.23;100.00
7824;BME280;3957;48.61947800;9.05303100;2022-11-20T00:40:35;95539.81;;;2.17;100.00
7824;BME280;3957;48.61947800;9.05303100;2022-11-20T00:41:56;95539.47;;;2.20;100.00
7824;BME280;3957;48.61947800;9.05303100;2022-11-20T00:43:17;95535.53;;;2.16;100.00
7824;BME280;3957;48.61947800;9.05303100;2022-11-20T00:44:38;95537.50;;;2.14;100.00
7824;BME280;3957;48.61947800;9.05303100;2022-11-20T00:46:00;95540.31;;;2.13;100.00
7824;BME280;3957;48.61947800;9.05303100;2022-11-20T00:47:21;95539.47;;;2.12;100.00
7824;BME280;3957;48.61947800;9.05303100;2022-11-20T00:48:43;95537.34;;;2.16;100.00
7824;BME280;3957;48.61947800;9.05303100;2022-11-20T00:50:04;95533.03;;;2.15;100.00
7824;BME280;3957;48.61947800;9.05303100;2022-11-20T00:51:26;95537.50;;;2.14;100.00
7824;BME280;3957;48.61947800;9.05303100;2022-11-20T00:52:47;95538.16;;;2.16;100.00
7824;BME280;3957;48.61947800;9.05303100;2022-11-20T00:54:08;95542.63;;;2.16;100.00
7824;BME280;3957;48.61947800;9.05303100;2022-11-20T00:55:28;95545.09;;;2.17;100.00
7824;BME280;3957;48.61947800;9.05303100;2022-11-20T00:56:49;95541.13;;;2.13;100.00
7824;BME280;3957;48.61947800;9.05303100;2022-11-20T00:58:10;95546.59;;;2.12;100.00
7824;BME280;3957;48.61947800;9.05303100;2022-11-20T00:59:30;95539.47;;;2.12;100.00
7824;BME280;3957;48.61947800;9.05303100;2022-11-20T01:00:51;95544.59;;;2.22;100.00
7824;BME280;3957;48.61947800;9.05303100;2022-11-20T01:02:12;95536.84;;;2.20;100.00
7824;BME280;3957;48.61947800;9.05303100;2022-11-20T01:03:34;95546.59;;;2.12;100.00
7824;BME280;3957;48.61947800;9.05303100;2022-11-20T01:04:55;95554.66;;;2.10;100.00
7824;BME280;3957;48.61947800;9.05303100;2022-11-20T01:06:30;95546.91;;;2.09;100.00
7824;BME280;3957;48.61947800;9.05303100;2022-11-20T01:07:51;95560.41;;;2.06;100.00
7824;BME280;3957;48.61947800;9.05303100;2022-11-20T01:09:14;95545.91;;;2.01;100.00
7824;BME280;3957;48.61947800;9.05303100;2022-11-20T01:10:35;95556.28;;;2.03;100.00
7824;BME280;3957;48.61947800;9.05303100;2022-11-20T01:11:55;95554.66;;;2.02;100.00
7824;BME280;3957;48.61947800;9.05303100;2022-11-20T01:13:16;95549.22;;;1.95;100.00
7824;BME280;3957;48.61947800;9.05303100;2022-11-20T01:14:55;95548.69;;;1.92;100.00
7824;BME280;3957;48.61947800;9.05303100;2022-11-20T01:16:24;95553.34;;;1.98;100.00
7824;BME280;3957;48.61947800;9.05303100;2022-11-20T01:17:45;95554.47;;;1.95;100.00
7824;BME280;3957;48.61947800;9.05303100;2022-11-20T01:19:09;95556.97;;;1.97;100.00
7824;BME280;3957;48.61947800;9.05303100;2022-11-20T01:20:34;95556.13;;;1.96;100.00
7824;BME280;3957;48.61947800;9.05303100;2022-11-20T01:21:56;95555.63;;;1.93;100.00
7824;BME280;3957;48.61947800;9.05303100;2022-11-20T01:23:16;95555.63;;;1.93;100.00
7824;BME280;3957;48.61947800;9.05303100;2022-11-20T01:24:37;95561.41;;;1.88;100.00
7824;BME280;3957;48.61947800;9.05303100;2022-11-20T01:26:00;95566.66;;;1.80;100.00
7824;BME280;3957;48.61947800;9.05303100;2022-11-20T01:27:21;95565.81;;;1.71;100.00
7824;BME280;3957;48.61947800;9.05303100;2022-11-20T01:28:42;95563.84;;;1.73;100.00
7824;BME280;3957;48.61947800;9.05303100;2022-11-20T01:30:04;95562.00;;;1.65;100.00
7824;BME280;3957;48.61947800;9.05303100;2022-11-20T01:32:45;95563.81;;;1.65;100.00
7824;BME280;3957;48.61947800;9.05303100;2022-11-20T01:34:11;95565.94;;;1.61;100.00
7824;BME280;3957;48.61947800;9.05303100;2022-11-20T01:35:32;95564.31;;;1.60;100.00
7824;BME280;3957;48.61947800;9.05303100;2022-11-20T01:36:53;95569.72;;;1.59;100.00
7824;BME280;3957;48.61947800;9.05303100;2022-11-20T01:38:15;95562.16;;;1.56;100.00
7824;BME280;3957;48.61947800;9.05303100;2022-11-20T01:39:36;95563.81;;;1.57;100.00
7824;BME280;3957;48.61947800;9.05303100;2022-11-20T01:40:57;95564.13;;;1.53;100.00
7824;BME280;3957;48.61947800;9.05303100;2022-11-20T01:42:17;95563.00;;;1.56;100.00
7824;BME280;3957;48.61947800;9.05303100;2022-11-20T01:43:57;95561.97;;;1.57;100.00
7824;BME280;3957;48.61947800;9.05303100;2022-11-20T01:46:13;95567.25;;;1.57;100.00
7824;BME280;3957;48.61947800;9.05303100;2022-11-20T01:49:02;95557.03;;;1.54;100.00
7824;BME280;3957;48.61947800;9.05303100;2022-11-20T01:50:26;95571.38;;;1.51;100.00
7824;BME280;3957;48.61947800;9.05303100;2022-11-20T01:52:05;95555.34;;;1.45;100.00
7824;BME280;3957;48.61947800;9.05303100;2022-11-20T01:53:31;95566.22;;;1.42;100.00
7824;BME280;3957;48.61947800;9.05303100;2022-11-20T01:54:58;95565.09;;;1.44;100.00
7824;BME280;3957;48.61947800;9.05303100;2022-11-20T01:56:21;95564.25;;;1.35;100.00
7824;BME280;3957;48.61947800;9.05303100;2022-11-20T01:57:44;95565.84;;;1.28;100.00
7824;BME280;3957;48.61947800;9.05303100;2022-11-20T01:59:07;95559.22;;;1.24;100.00
7824;BME280;3957;48.61947800;9.05303100;2022-11-20T02:00:28;95571.06;;;1.20;100.00
7824;BME280;3957;48.61947800;9.05303100;2022-11-20T02:01:49;95560.22;;;1.15;100.00
7824;BME280;3957;48.61947800;9.05303100;2022-11-20T02:03:16;95570.91;;;1.13;100.00
7824;BME280;3957;48.61947800;9.05303100;2022-11-20T02:04:37;95565.94;;;1.10;100.00
7824;BME280;3957;48.61947800;9.05303100;2022-11-20T02:06:11;95568.31;;;1.22;100.00
7824;BME280;3957;48.61947800;9.05303100;2022-11-20T02:07:33;95571.16;;;1.36;100.00
7824;BME280;3957;48.61947800;9.05303100;2022-11-20T02:08:54;95573.66;;;1.46;100.00
7824;BME280;3957;48.61947800;9.05303100;2022-11-20T02:10:15;95568.06;;;1.41;100.00
7824;BME280;3957;48.61947800;9.05303100;2022-11-20T02:11:36;95572.34;;;1.50;100.00
7824;BME280;3957;48.61947800;9.05303100;2022-11-20T02:12:57;95566.41;;;1.48;100.00
7824;BME280;3957;48.61947800;9.05303100;2022-11-20T02:14:36;95571.16;;;1.45;100.00
7824;BME280;3957;48.61947800;9.05303100;2022-11-20T02:15:57;95567.69;;;1.36;100.00
7824;BME280;3957;48.61947800;9.05303100;2022-11-20T02:17:18;95570.97;;;1.38;100.00
7824;BME280;3957;48.61947800;9.05303100;2022-11-20T02:18:39;95570.34;;;1.44;100.00
7824;BME280;3957;48.61947800;9.05303100;2022-11-20T02:20:00;95564.28;;;1.52;100.00
7824;BME280;3957;48.61947800;9.05303100;2022-11-20T02:21:40;95574.00;;;1.51;100.00
7824;BME280;3957;48.61947800;9.05303100;2022-11-20T02:23:12;95566.41;;;1.48;100.00
7824;BME280;3957;48.61947800;9.05303100;2022-11-20T02:24:37;95567.72;;;1.44;100.00
7824;BME280;3957;48.61947800;9.05303100;2022-11-20T02:26:00;95568.38;;;1.46;100.00
7824;BME280;3957;48.61947800;9.05303100;2022-11-20T02:27:22;95572.34;;;1.50;100.00
7824;BME280;3957;48.61947800;9.05303100;2022-11-20T02:28:43;95572.50;;;1.49;100.00
7824;BME280;3957;48.61947800;9.05303100;2022-11-20T02:30:05;95567.06;;;1.50;100.00
7824;BME280;3957;48.61947800;9.05303100;2022-11-20T02:31:36;95563.63;;;1.58;100.00
7824;BME280;3957;48.61947800;9.05303100;2022-11-20T02:32:58;95565.78;;;1.63;100.00
7824;BME280;3957;48.61947800;9.05303100;2022-11-20T02:34:18;95558.88;;;1.62;100.00
7824;BME280;3957;48.61947800;9.05303100;2022-11-20T02:35:41;95563.81;;;1.57;100.00
7824;BME280;3957;48.61947800;9.05303100;2022-11-20T02:37:03;95560.00;;;1.51;100.00
7824;BME280;3957;48.61947800;9.05303100;2022-11-20T02:38:23;95558.84;;;1.45;100.00
7824;BME280;3957;48.61947800;9.05303100;2022-11-20T02:39:45;95560.47;;;1.46;100.00
7824;BME280;3957;48.61947800;9.05303100;2022-11-20T02:41:07;95558.16;;;1.43;100.00
7824;BME280;3957;48.61947800;9.05303100;2022-11-20T02:42:28;95562.97;;;1.48;100.00
7824;BME280;3957;48.61947800;9.05303100;2022-11-20T02:43:48;95559.16;;;1.50;100.00
7824;BME280;3957;48.61947800;9.05303100;2022-11-20T02:45:09;95558.00;;;1.53;100.00
7824;BME280;3957;48.61947800;9.05303100;2022-11-20T02:46:31;95554.72;;;1.51;100.00
7824;BME280;3957;48.61947800;9.05303100;2022-11-20T02:47:52;95557.69;;;1.48;100.00
7824;BME280;3957;48.61947800;9.05303100;2022-11-20T02:49:13;95550.09;;;1.45;100.00
7824;BME280;3957;48.61947800;9.05303100;2022-11-20T02:50:37;95553.72;;;1.44;100.00
7824;BME280;3957;48.61947800;9.05303100;2022-11-20T02:51:59;95560.47;;;1.46;100.00
7824;BME280;3957;48.61947800;9.05303100;2022-11-20T02:53:20;95553.41;;;1.47;100.00
7824;BME280;3957;48.61947800;9.05303100;2022-11-20T02:54:40;95553.22;;;1.48;100.00
7824;BME280;3957;48.61947800;9.05303100;2022-11-20T02:56:01;95551.13;;;1.52;100.00
7824;BME280;3957;48.61947800;9.05303100;2022-11-20T02:57:22;95554.41;;;1.54;100.00
7824;BME280;3957;48.61947800;9.05303100;2022-11-20T02:58:42;95546.66;;;1.52;100.00
7824;BME280;3957;48.61947800;9.05303100;2022-11-20T03:00:04;95551.59;;;1.56;100.00
7824;BME280;3957;48.61947800;9.05303100;2022-11-20T03:01:27;95554.25;;;1.56;100.00
7824;BME280;3957;48.61947800;9.05303100;2022-11-20T03:02:47;95554.41;;;1.54;100.00
7824;BME280;3957;48.61947800;9.05303100;2022-11-20T03:04:08;95545.84;;;1.52;100.00
7824;BME280;3957;48.61947800;9.05303100;2022-11-20T03:05:29;95549.13;;;1.54;100.00
7824;BME280;3957;48.61947800;9.05303100;2022-11-20T03:06:50;95551.44;;;1.57;100.00
7824;BME280;3957;48.61947800;9.05303100;2022-11-20T03:08:10;95553.44;;;1.55;100.00
7824;BME280;3957;48.61947800;9.05303100;2022-11-20T03:09:31;95557.72;;;1.56;100.00
7824;BME280;3957;48.61947800;9.05303100;2022-11-20T03:10:52;95562.81;;;1.58;100.00
7824;BME280;3957;48.61947800;9.05303100;2022-11-20T03:12:13;95559.69;;;1.54;100.00
7824;BME280;3957;48.61947800;9.05303100;2022-11-20T03:13:34;95555.72;;;1.58;100.00
7824;BME280;3957;48.61947800;9.05303100;2022-11-20T03:14:55;95560.03;;;1.59;100.00
7824;BME280;3957;48.61947800;9.05303100;2022-11-20T03:16:19;95565.00;;;1.70;100.00
7824;BME280;3957;48.61947800;9.05303100;2022-11-20T03:17:40;95564.19;;;1.70;100.00
7824;BME280;3957;48.61947800;9.05303100;2022-11-20T03:19:01;95557.56;;;1.66;100.00
7824;BME280;3957;48.61947800;9.05303100;2022-11-20T03:20:22;95562.34;;;1.62;100.00
7824;BME280;3957;48.61947800;9.05303100;2022-11-20T03:21:43;95561.19;;;1.65;100.00
7824;BME280;3957;48.61947800;9.05303100;2022-11-20T03:23:04;95558.56;;;1.65;100.00
7824;BME280;3957;48.61947800;9.05303100;2022-11-20T03:24:25;95566.94;;;1.68;100.00
7824;BME280;3957;48.61947800;9.05303100;2022-11-20T03:25:45;95559.34;;;1.57;100.00
7824;BME280;3957;48.61947800;9.05303100;2022-11-20T03:27:06;95556.53;;;1.59;100.00
7824;BME280;3957;48.61947800;9.05303100;2022-11-20T03:28:27;95552.91;;;1.51;100.00
7824;BME280;3957;48.61947800;9.05303100;2022-11-20T03:29:48;95547.47;;;1.53;100.00
7824;BME280;3957;48.61947800;9.05303100;2022-11-20T03:31:11;95555.72;;;1.58;100.00
7824;BME280;3957;48.61947800;9.05303100;2022-11-20T03:32:32;95554.59;;;1.61;100.00
7824;BME280;3957;48.61947800;9.05303100;2022-11-20T03:33:53;95550.47;;;1.58;100.00
7824;BME280;3957;48.61947800;9.05303100;2022-11-20T03:35:14;95556.09;;;1.63;100.00
7824;BME280;3957;48.61947800;9.05303100;2022-11-20T03:36:37;95545.72;;;1.70;100.00
7824;BME280;3957;48.61947800;9.05303100;2022-11-20T03:37:58;95552.44;;;1.73;100.00
7824;BME280;3957;48.61947800;9.05303100;2022-11-20T03:39:19;95551.00;;;1.78;100.00
7824;BME280;3957;48.61947800;9.05303100;2022-11-20T03:40:40;95555.28;;;1.79;100.00
7824;BME280;3957;48.61947800;9.05303100;2022-11-20T03:42:00;95555.09;;;1.81;100.00
7824;BME280;3957;48.61947800;9.05303100;2022-11-20T03:43:21;95551.00;;;1.78;100.00
7824;BME280;3957;48.61947800;9.05303100;2022-11-20T03:44:42;95554.28;;;1.80;100.00
7824;BME280;3957;48.61947800;9.05303100;2022-11-20T03:46:03;95553.31;;;1.81;100.00
7824;BME280;3957;48.61947800;9.05303100;2022-11-20T03:47:24;95556.41;;;1.77;100.00
7824;BME280;3957;48.61947800;9.05303100;2022-11-20T03:48:45;95553.13;;;1.75;100.00
7824;BME280;3957;48.61947800;9.05303100;2022-11-20T03:50:07;95559.88;;;1.69;100.00
7824;BME280;3957;48.61947800;9.05303100;2022-11-20T03:51:29;95549.97;;;1.63;100.00
7824;BME280;3957;48.61947800;9.05303100;2022-11-20T03:52:51;95551.94;;;1.61;100.00
7824;BME280;3957;48.61947800;9.05303100;2022-11-20T03:54:11;95549.66;;;1.58;100.00
7824;BME280;3957;48.61947800;9.05303100;2022-11-20T03:55:32;95544.34;;;1.49;100.00
7824;BME280;3957;48.61947800;9.05303100;2022-11-20T03:56:53;95542.38;;;1.51;100.00
7824;BME280;3957;48.61947800;9.05303100;2022-11-20T03:58:13;95540.53;;;1.44;100.00
7824;BME280;3957;48.61947800;9.05303100;2022-11-20T03:59:34;95543.03;;;1.45;100.00
7824;BME280;3957;48.61947800;9.05303100;2022-11-20T04:00:55;95552.88;;;1.43;100.00
7824;BME280;3957;48.61947800;9.05303100;2022-11-20T04:02:16;95550.25;;;1.43;100.00
7824;BME280;3957;48.61947800;9.05303100;2022-11-20T04:03:38;95555.34;;;1.45;100.00
7824;BME280;3957;48.61947800;9.05303100;2022-11-20T04:04:58;95550.28;;;1.51;100.00
7824;BME280;3957;48.61947800;9.05303100;2022-11-20T04:06:28;95555.09;;;1.56;100.00
7824;BME280;3957;48.61947800;9.05303100;2022-11-20T04:07:49;95556.91;;;1.64;100.00
7824;BME280;3957;48.61947800;9.05303100;2022-11-20T04:09:10;95557.56;;;1.66;100.00
7824;BME280;3957;48.61947800;9.05303100;2022-11-20T04:10:31;95560.03;;;1.67;100.00
7824;BME280;3957;48.61947800;9.05303100;2022-11-20T04:11:51;95558.56;;;1.73;100.00
7824;BME280;3957;48.61947800;9.05303100;2022-11-20T04:13:12;95559.22;;;1.75;100.00
7824;BME280;3957;48.61947800;9.05303100;2022-11-20T04:14:33;95559.06;;;1.77;100.00
7824;BME280;3957;48.61947800;9.05303100;2022-11-20T04:15:57;95551.16;;;1.77;100.00
7824;BME280;3957;48.61947800;9.05303100;2022-11-20T04:17:18;95554.63;;;1.77;100.00
7824;BME280;3957;48.61947800;9.05303100;2022-11-20T04:18:39;95549.34;;;1.77;100.00
7824;BME280;3957;48.61947800;9.05303100;2022-11-20T04:19:59;95543.91;;;1.79;100.00
7824;BME280;3957;48.61947800;9.05303100;2022-11-20T04:21:21;95550.34;;;1.84;100.00
7824;BME280;3957;48.61947800;9.05303100;2022-11-20T04:22:42;95553.66;;;1.95;100.00
7824;BME280;3957;48.61947800;9.05303100;2022-11-20T04:24:02;95543.13;;;1.95;100.00
7824;BME280;3957;48.61947800;9.05303100;2022-11-20T04:25:23;95548.41;;;1.95;100.00
7824;BME280;3957;48.61947800;9.05303100;2022-11-20T04:26:44;95548.22;;;1.96;100.00
7824;BME280;3957;48.61947800;9.05303100;2022-11-20T04:28:05;95556.44;;;2.01;100.00
7824;BME280;3957;48.61947800;9.05303100;2022-11-20T04:29:25;95547.03;;;1.99;100.00
7824;BME280;3957;48.61947800;9.05303100;2022-11-20T04:30:46;95546.56;;;2.03;100.00
7824;BME280;3957;48.61947800;9.05303100;2022-11-20T04:32:07;95552.34;;;2.07;100.00
7824;BME280;3957;48.61947800;9.05303100;2022-11-20T04:33:28;95534.38;;;2.02;100.00
7824;BME280;3957;48.61947800;9.05303100;2022-11-20T04:34:48;95543.44;;;2.00;100.00
7824;BME280;3957;48.61947800;9.05303100;2022-11-20T04:36:13;95540.63;;;2.01;100.00
7824;BME280;3957;48.61947800;9.05303100;2022-11-20T04:37:34;95537.84;;;1.95;100.00
7824;BME280;3957;48.61947800;9.05303100;2022-11-20T04:38:57;95539.13;;;1.99;100.00
7824;BME280;3957;48.61947800;9.05303100;2022-11-20T04:40:18;95540.78;;;2.00;100.00
7824;BME280;3957;48.61947800;9.05303100;2022-11-20T04:41:38;95535.84;;;1.97;100.00
7824;BME280;3957;48.61947800;9.05303100;2022-11-20T04:42:59;95532.72;;;2.01;100.00
7824;BME280;3957;48.61947800;9.05303100;2022-11-20T04:44:20;95539.00;;;2.00;100.00
7824;BME280;3957;48.61947800;9.05303100;2022-11-20T04:45:41;95530.56;;;2.05;100.00
7824;BME280;3957;48.61947800;9.05303100;2022-11-20T04:47:01;95532.72;;;2.01;100.00
7824;BME280;3957;48.61947800;9.05303100;2022-11-20T04:48:23;95523.63;;;2.04;100.00
7824;BME280;3957;48.61947800;9.05303100;2022-11-20T04:49:44;95530.06;;;2.01;100.00
7824;BME280;3957;48.61947800;9.05303100;2022-11-20T04:51:05;95523.00;;;2.02;100.00
7824;BME280;3957;48.61947800;9.05303100;2022-11-20T04:52:26;95539.81;;;2.01;100.00
7824;BME280;3957;48.61947800;9.05303100;2022-11-20T04:53:48;95532.88;;;2.00;100.00
7824;BME280;3957;48.61947800;9.05303100;2022-11-20T04:55:08;95533.53;;;2.02;100.00
7824;BME280;3957;48.61947800;9.05303100;2022-11-20T04:56:29;95531.22;;;1.99;100.00
7824;BME280;3957;48.61947800;9.05303100;2022-11-20T04:57:50;95532.88;;;2.00;100.00
7824;BME280;3957;48.61947800;9.05303100;2022-11-20T04:59:11;95538.31;;;2.07;100.00
7824;BME280;3957;48.61947800;9.05303100;2022-11-20T05:00:32;95531.72;;;2.11;100.00
7824;BME280;3957;48.61947800;9.05303100;2022-11-20T05:01:53;95529.91;;;2.11;100.00
7824;BME280;3957;48.61947800;9.05303100;2022-11-20T05:03:14;95529.44;;;2.08;100.00
7824;BME280;3957;48.61947800;9.05303100;2022-11-20T05:04:34;95529.91;;;2.11;100.00
7824;BME280;3957;48.61947800;9.05303100;2022-11-20T05:05:55;95526.97;;;2.14;100.00
7824;BME280;3957;48.61947800;9.05303100;2022-11-20T05:07:16;95531.56;;;2.12;100.00
7824;BME280;3957;48.61947800;9.05303100;2022-11-20T05:08:37;95529.25;;;2.09;100.00
7824;BME280;3957;48.61947800;9.05303100;2022-11-20T05:09:57;95522.66;;;2.13;100.00
7824;BME280;3957;48.61947800;9.05303100;2022-11-20T05:11:20;95523.47;;;2.14;100.00
7824;BME280;3957;48.61947800;9.05303100;2022-11-20T05:12:40;95515.38;;;2.15;100.00
7824;BME280;3957;48.61947800;9.05303100;2022-11-20T05:14:01;95526.28;;;2.20;100.00
7824;BME280;3957;48.61947800;9.05303100;2022-11-20T05:15:22;95524.97;;;2.25;100.00
7824;BME280;3957;48.61947800;9.05303100;2022-11-20T05:16:43;95521.50;;;2.24;100.00
7824;BME280;3957;48.61947800;9.05303100;2022-11-20T05:18:03;95521.97;;;2.19;100.00
7824;BME280;3957;48.61947800;9.05303100;2022-11-20T05:19:24;95524.97;;;2.16;100.00
7824;BME280;3957;48.61947800;9.05303100;2022-11-20T05:20:45;95523.00;;;2.18;100.00
7824;BME280;3957;48.61947800;9.05303100;2022-11-20T05:22:05;95521.50;;;2.16;100.00
7824;BME280;3957;48.61947800;9.05303100;2022-11-20T05:23:27;95518.03;;;2.15;100.00
7824;BME280;3957;48.61947800;9.05303100;2022-11-20T05:24:47;95521.34;;;2.17;100.00
7824;BME280;3957;48.61947800;9.05303100;2022-11-20T05:26:19;95523.47;;;2.14;100.00
7824;BME280;3957;48.61947800;9.05303100;2022-11-20T05:27:40;95519.22;;;2.13;100.00
7824;BME280;3957;48.61947800;9.05303100;2022-11-20T05:29:00;95516.41;;;2.14;100.00
7824;BME280;3957;48.61947800;9.05303100;2022-11-20T05:30:21;95526.09;;;2.14;100.00
7824;BME280;3957;48.61947800;9.05303100;2022-11-20T05:31:42;95524.97;;;2.08;100.00
7824;BME280;3957;48.61947800;9.05303100;2022-11-20T05:33:03;95519.50;;;2.10;100.00
7824;BME280;3957;48.61947800;9.05303100;2022-11-20T05:34:23;95521.69;;;2.06;100.00
7824;BME280;3957;48.61947800;9.05303100;2022-11-20T05:35:45;95522.66;;;2.05;100.00
7824;BME280;3957;48.61947800;9.05303100;2022-11-20T05:37:06;95521.97;;;2.11;100.00
7824;BME280;3957;48.61947800;9.05303100;2022-11-20T05:38:26;95520.34;;;2.02;100.00
7824;BME280;3957;48.61947800;9.05303100;2022-11-20T05:39:47;95524.97;;;2.00;100.00
7824;BME280;3957;48.61947800;9.05303100;2022-11-20T05:41:16;95526.78;;;1.99;100.00
7824;BME280;3957;48.61947800;9.05303100;2022-11-20T05:42:37;95531.53;;;1.96;100.00
7824;BME280;3957;48.61947800;9.05303100;2022-11-20T05:43:58;95527.94;;;1.97;100.00
7824;BME280;3957;48.61947800;9.05303100;2022-11-20T05:45:19;95530.91;;;1.94;100.00
7824;BME280;3957;48.61947800;9.05303100;2022-11-20T05:46:40;95526.28;;;1.96;100.00
7824;BME280;3957;48.61947800;9.05303100;2022-11-20T05:48:01;95523.81;;;1.94;100.00
7824;BME280;3957;48.61947800;9.05303100;2022-11-20T05:49:21;95529.25;;;2.01;100.00
7824;BME280;3957;48.61947800;9.05303100;2022-11-20T05:50:42;95517.38;;;1.97;100.00
7824;BME280;3957;48.61947800;9.05303100;2022-11-20T05:52:03;95530.22;;;2.00;100.00
7824;BME280;3957;48.61947800;9.05303100;2022-11-20T05:53:24;95530.75;;;1.95;100.00
7824;BME280;3957;48.61947800;9.05303100;2022-11-20T05:54:45;95524.47;;;1.96;100.00
7824;BME280;3957;48.61947800;9.05303100;2022-11-20T05:56:08;95532.06;;;1.99;100.00
7824;BME280;3957;48.61947800;9.05303100;2022-11-20T05:57:30;95528.25;;;1.94;100.00
7824;BME280;3957;48.61947800;9.05303100;2022-11-20T05:58:51;95526.28;;;1.96;100.00
7824;BME280;3957;48.61947800;9.05303100;2022-11-20T06:00:12;95532.41;;;1.96;100.00
7824;BME280;3957;48.61947800;9.05303100;2022-11-20T06:01:34;95536.34;;;2.00;100.00
7824;BME280;3957;48.61947800;9.05303100;2022-11-20T06:02:56;95535.69;;;1.98;100.00
7824;BME280;3957;48.61947800;9.05303100;2022-11-20T06:04:17;95535.03;;;1.96;100.00
7824;BME280;3957;48.61947800;9.05303100;2022-11-20T06:05:37;95536.34;;;2.00;100.00
7824;BME280;3957;48.61947800;9.05303100;2022-11-20T06:06:58;95535.69;;;1.98;100.00
7824;BME280;3957;48.61947800;9.05303100;2022-11-20T06:08:19;95534.38;;;2.02;100.00
7824;BME280;3957;48.61947800;9.05303100;2022-11-20T06:09:40;95529.25;;;2.01;100.00
7824;BME280;3957;48.61947800;9.05303100;2022-11-20T06:11:05;95533.56;;;2.10;100.00
7824;BME280;3957;48.61947800;9.05303100;2022-11-20T06:12:26;95528.28;;;2.02;100.00
7824;BME280;3957;48.61947800;9.05303100;2022-11-20T06:13:47;95525.47;;;2.03;100.00
7824;BME280;3957;48.61947800;9.05303100;2022-11-20T06:15:08;95525.63;;;2.02;100.00
7824;BME280;3957;48.61947800;9.05303100;2022-11-20T06:16:29;95528.28;;;2.02;100.00
7824;BME280;3957;48.61947800;9.05303100;2022-11-20T06:17:52;95517.03;;;2.00;100.00
7824;BME280;3957;48.61947800;9.05303100;2022-11-20T06:19:14;95524.78;;;2.01;100.00
7824;BME280;3957;48.61947800;9.05303100;2022-11-20T06:20:35;95524.78;;;2.01;100.00
7824;BME280;3957;48.61947800;9.05303100;2022-11-20T06:21:56;95515.06;;;2.02;100.00
7824;BME280;3957;48.61947800;9.05303100;2022-11-20T06:23:16;95520.66;;;1.99;100.00
7824;BME280;3957;48.61947800;9.05303100;2022-11-20T06:24:37;95525.94;;;1.99;100.00
7824;BME280;3957;48.61947800;9.05303100;2022-11-20T06:26:02;95525.13;;;1.98;100.00
7824;BME280;3957;48.61947800;9.05303100;2022-11-20T06:27:23;95530.75;;;2.03;100.00
7824;BME280;3957;48.61947800;9.05303100;2022-11-20T06:28:43;95526.28;;;2.04;100.00
7824;BME280;3957;48.61947800;9.05303100;2022-11-20T06:30:05;95525.63;;;2.02;100.00
7824;BME280;3957;48.61947800;9.05303100;2022-11-20T06:31:26;95534.38;;;2.02;100.00
7824;BME280;3957;48.61947800;9.05303100;2022-11-20T06:32:47;95520.66;;;1.99;100.00
7824;BME280;3957;48.61947800;9.05303100;2022-11-20T06:34:08;95529.25;;;2.01;100.00
7824;BME280;3957;48.61947800;9.05303100;2022-11-20T06:35:29;95529.41;;;1.99;100.00